createdAt,value
2018-08-06T00:00:41.582Z,71.40
2018-08-06T00:03:45.208Z,71.56
2018-08-06T00:06:48.856Z,71.37
2018-08-06T00:09:52.473Z,71.52
2018-08-06T00:12:56.146Z,72.09
2018-08-06T00:15:59.897Z,72.12
2018-08-06T00:19:03.764Z,72.67
2018-08-06T00:22:07.950Z,72.68
2018-08-06T00:25:12.946Z,72.39
2018-08-06T00:28:16.578Z,73.01
2018-08-06T00:31:20.234Z,73.33
2018-08-06T00:34:23.935Z,73.52
2018-08-06T00:37:27.576Z,73.98
2018-08-06T00:40:31.195Z,74.28
2018-08-06T00:43:34.826Z,74.83
2018-08-06T00:46:38.966Z,75.10
2018-08-06T00:49:42.493Z,75.22
2018-08-06T00:52:46.307Z,75.55
2018-08-06T00:55:49.914Z,75.93
2018-08-06T00:58:53.511Z,76.25
2018-08-06T01:01:57.776Z,76.11
2018-08-06T01:05:01.286Z,76.26
2018-08-06T01:08:05.061Z,76.22
2018-08-06T01:11:08.709Z,75.49
2018-08-06T01:14:12.416Z,74.84
2018-08-06T01:17:16.118Z,74.64
2018-08-06T01:20:19.860Z,74.58
2018-08-06T01:23:23.692Z,74.52
2018-08-06T01:26:27.403Z,74.72
2018-08-06T01:29:31.021Z,74.58
2018-08-06T01:32:34.856Z,74.91
2018-08-06T01:35:38.472Z,74.91
2018-08-06T01:38:42.074Z,74.43
2018-08-06T01:41:45.832Z,74.04
2018-08-06T01:44:49.461Z,73.59
2018-08-06T01:47:53.310Z,73.62
2018-08-06T01:50:56.873Z,73.55
2018-08-06T01:54:00.613Z,73.26
2018-08-06T01:57:04.266Z,73.43
2018-08-06T02:00:11.197Z,73.63
2018-08-06T02:03:14.932Z,73.38
2018-08-06T02:06:18.586Z,73.15
2018-08-06T02:09:22.243Z,73.24
2018-08-06T02:12:25.852Z,73.35
2018-08-06T02:15:29.479Z,73.59
2018-08-06T02:18:33.108Z,73.62
2018-08-06T02:21:36.656Z,73.40
2018-08-06T02:24:40.453Z,73.43
2018-08-06T02:27:44.377Z,73.67
2018-08-06T02:30:48.033Z,73.93
2018-08-06T02:33:51.768Z,73.91
2018-08-06T02:36:55.406Z,73.80
2018-08-06T02:39:59.106Z,73.98
2018-08-06T02:43:02.824Z,74.30
2018-08-06T02:46:07.087Z,74.53
2018-08-06T02:49:10.818Z,74.60
2018-08-06T02:52:15.331Z,74.91
2018-08-06T02:55:19.122Z,74.96
2018-08-06T02:58:22.669Z,74.95
2018-08-06T03:01:26.541Z,75.08
2018-08-06T03:04:30.159Z,75.35
2018-08-06T03:07:33.779Z,75.39
2018-08-06T03:10:37.512Z,75.49
2018-08-06T03:13:41.297Z,75.75
2018-08-06T03:16:44.929Z,75.74
2018-08-06T03:19:48.522Z,75.70
2018-08-06T03:22:52.244Z,75.50
2018-08-06T03:25:55.908Z,75.26
2018-08-06T03:28:59.572Z,74.83
2018-08-06T03:32:03.190Z,74.81
2018-08-06T03:35:08.268Z,74.51
2018-08-06T03:38:11.868Z,74.05
2018-08-06T03:41:15.618Z,74.23
2018-08-06T03:44:19.209Z,74.18
2018-08-06T03:47:22.930Z,74.24
2018-08-06T03:50:26.458Z,74.38
2018-08-06T03:53:30.269Z,74.30
2018-08-06T03:56:34.167Z,74.37
2018-08-06T03:59:37.762Z,74.53
2018-08-06T04:02:41.955Z,74.53
2018-08-06T04:05:45.824Z,74.33
2018-08-06T04:08:49.552Z,73.30
2018-08-06T04:11:53.120Z,70.70
2018-08-06T04:14:56.805Z,67.15
2018-08-06T04:18:00.474Z,64.61
2018-08-06T04:21:04.064Z,62.77
2018-08-06T04:24:08.579Z,60.18
2018-08-06T04:27:12.210Z,57.59
2018-08-06T04:30:16.578Z,55.42
2018-08-06T04:33:20.214Z,53.85
2018-08-06T04:36:24.031Z,53.91
2018-08-06T04:39:27.716Z,52.54
2018-08-06T04:42:31.459Z,51.17
2018-08-06T04:45:35.105Z,50.48
2018-08-06T04:48:38.849Z,48.81
2018-08-06T04:51:42.473Z,47.68
2018-08-06T04:54:46.085Z,46.97
2018-08-06T04:57:49.778Z,46.99
2018-08-06T05:00:53.463Z,47.39
2018-08-06T05:03:57.152Z,47.23
2018-08-06T05:07:00.872Z,49.67
2018-08-06T05:10:04.719Z,50.96
2018-08-06T05:13:08.377Z,50.41
2018-08-06T05:16:11.996Z,49.27
2018-08-06T05:19:15.601Z,49.60
2018-08-06T05:22:19.246Z,48.76
2018-08-06T05:25:22.995Z,49.19
2018-08-06T05:28:27.437Z,49.20
2018-08-06T05:31:31.224Z,50.59
2018-08-06T05:34:34.827Z,49.96
2018-08-06T05:37:38.580Z,49.82
2018-08-06T05:40:42.279Z,48.72
2018-08-06T05:43:45.911Z,48.81
2018-08-06T05:46:49.677Z,46.91
2018-08-06T05:49:53.390Z,44.95
2018-08-06T05:52:57.042Z,44.95
2018-08-06T05:56:00.805Z,43.14
2018-08-06T05:59:04.595Z,43.27
2018-08-06T06:02:08.321Z,42.47
2018-08-06T06:05:12.192Z,43.30
2018-08-06T06:08:15.871Z,43.49
2018-08-06T06:11:19.541Z,46.04
2018-08-06T06:14:23.464Z,45.45
2018-08-06T06:17:27.030Z,45.30
2018-08-06T06:20:30.729Z,46.57
2018-08-06T06:23:34.454Z,44.88
2018-08-06T06:26:38.130Z,44.33
2018-08-06T06:29:41.874Z,44.82
2018-08-06T06:32:45.760Z,44.59
2018-08-06T06:35:49.429Z,42.69
2018-08-06T06:38:53.096Z,42.21
2018-08-06T06:41:56.805Z,40.38
2018-08-06T06:45:00.493Z,38.51
2018-08-06T06:48:04.217Z,38.85
2018-08-06T06:51:08.267Z,40.58
2018-08-06T06:54:12.963Z,37.34
2018-08-06T06:57:16.649Z,38.87
2018-08-06T07:00:20.247Z,41.67
2018-08-06T07:03:23.993Z,42.89
2018-08-06T07:06:27.650Z,43.93
2018-08-06T07:09:31.270Z,45.21
2018-08-06T07:12:35.050Z,44.95
2018-08-06T07:15:38.996Z,46.15
2018-08-06T07:18:42.704Z,46.52
2018-08-06T07:21:46.372Z,45.75
2018-08-06T07:24:50.342Z,46.74
2018-08-06T07:27:54.016Z,44.56
2018-08-06T07:30:57.725Z,46.07
2018-08-06T07:34:01.300Z,45.40
2018-08-06T07:37:05.137Z,46.72
2018-08-06T07:40:10.786Z,45.60
2018-08-06T07:43:14.446Z,45.85
2018-08-06T07:46:18.210Z,44.86
2018-08-06T07:49:22.066Z,46.44
2018-08-06T07:52:25.711Z,46.43
2018-08-06T07:55:29.407Z,44.86
2018-08-06T07:58:33.094Z,43.92
2018-08-06T08:01:36.780Z,45.36
2018-08-06T08:04:40.542Z,44.70
2018-08-06T08:07:45.615Z,44.60
2018-08-06T08:10:49.387Z,47.10
2018-08-06T08:13:53.147Z,45.88
2018-08-06T08:16:56.932Z,45.38
2018-08-06T08:20:00.667Z,43.96
2018-08-06T08:23:04.313Z,44.30
2018-08-06T08:26:08.075Z,44.71
2018-08-06T08:29:11.771Z,44.17
2018-08-06T08:32:15.372Z,43.95
2018-08-06T08:35:19.259Z,45.41
2018-08-06T08:38:22.964Z,44.37
2018-08-06T08:41:26.671Z,42.81
2018-08-06T08:44:30.406Z,43.80
2018-08-06T08:47:34.000Z,43.47
2018-08-06T08:50:37.707Z,42.15
2018-08-06T08:53:41.508Z,42.25
2018-08-06T08:56:45.201Z,43.03
2018-08-06T08:59:49.007Z,42.26
2018-08-06T09:02:53.367Z,41.93
2018-08-06T09:05:57.138Z,41.22
2018-08-06T09:09:00.828Z,41.36
2018-08-06T09:12:04.614Z,41.25
2018-08-06T09:15:22.503Z,41.60
2018-08-06T09:18:26.143Z,41.27
2018-08-06T09:21:29.777Z,40.49
2018-08-06T09:24:33.608Z,41.37
2018-08-06T09:27:37.731Z,41.97
2018-08-06T09:30:41.393Z,39.17
2018-08-06T09:33:44.926Z,38.74
2018-08-06T09:36:48.592Z,38.25
2018-08-06T09:39:52.528Z,38.87
2018-08-06T09:42:56.307Z,38.93
2018-08-06T09:46:00.028Z,37.70
2018-08-06T09:49:03.837Z,38.16
2018-08-06T09:52:07.418Z,37.22
2018-08-06T09:55:14.566Z,38.88
2018-08-06T09:58:18.249Z,37.93
2018-08-06T10:01:27.069Z,38.79
2018-08-06T10:04:30.791Z,38.74
2018-08-06T10:07:34.477Z,37.70
2018-08-06T10:10:38.123Z,36.56
2018-08-06T10:13:41.674Z,37.43
2018-08-06T10:16:45.521Z,36.91
2018-08-06T10:19:49.148Z,37.41
2018-08-06T10:22:52.818Z,37.24
2018-08-06T10:25:56.620Z,38.08
2018-08-06T10:29:00.343Z,36.90
2018-08-06T10:32:03.959Z,37.33
2018-08-06T10:35:08.840Z,37.64
2018-08-06T10:38:12.473Z,36.39
2018-08-06T10:41:16.245Z,36.65
2018-08-06T10:44:20.066Z,36.37
2018-08-06T10:47:23.789Z,36.81
2018-08-06T10:50:27.471Z,35.23
2018-08-06T10:53:31.107Z,35.01
2018-08-06T10:56:35.760Z,35.46
2018-08-06T10:59:39.869Z,35.34
2018-08-06T11:02:43.764Z,34.04
2018-08-06T11:05:47.527Z,34.29
2018-08-06T11:08:51.115Z,34.64
2018-08-06T11:11:54.799Z,33.69
2018-08-06T11:14:58.429Z,33.79
2018-08-06T11:18:02.183Z,32.23
2018-08-06T11:21:05.853Z,33.38
2018-08-06T11:24:09.582Z,31.33
2018-08-06T11:27:13.193Z,31.30
2018-08-06T11:30:18.819Z,32.05
2018-08-06T11:33:22.554Z,30.58
2018-08-06T11:36:26.260Z,30.17
2018-08-06T11:39:29.904Z,30.17
2018-08-06T11:42:33.508Z,30.28
2018-08-06T11:45:37.198Z,29.55
2018-08-06T11:48:40.907Z,30.74
2018-08-06T11:51:44.652Z,29.27
2018-08-06T11:54:48.396Z,29.10
2018-08-06T11:57:52.045Z,27.85
2018-08-06T12:00:55.688Z,28.53
2018-08-06T12:03:59.330Z,27.76
2018-08-06T12:07:03.080Z,27.71
2018-08-06T12:10:09.786Z,26.87
2018-08-06T12:13:13.561Z,27.66
2018-08-06T12:16:17.295Z,26.91
2018-08-06T12:19:20.925Z,28.10
2018-08-06T12:22:24.674Z,26.96
2018-08-06T12:25:28.510Z,26.31
2018-08-06T12:28:32.202Z,26.97
2018-08-06T12:31:36.135Z,26.18
2018-08-06T12:34:39.819Z,26.64
2018-08-06T12:37:43.693Z,26.28
2018-08-06T12:40:47.600Z,24.80
2018-08-06T12:43:51.269Z,24.51
2018-08-06T12:46:54.920Z,25.25
2018-08-06T12:49:58.543Z,26.29
2018-08-06T12:53:02.122Z,24.77
2018-08-06T12:56:05.937Z,25.67
2018-08-06T12:59:09.773Z,25.25
2018-08-06T13:02:14.168Z,24.25
2018-08-06T13:05:18.659Z,25.15
2018-08-06T13:08:22.414Z,24.41
2018-08-06T13:11:26.078Z,23.24
2018-08-06T13:14:29.729Z,24.41
2018-08-06T13:17:33.478Z,24.08
2018-08-06T13:20:37.214Z,22.16
2018-08-06T13:23:41.005Z,22.48
2018-08-06T13:26:44.656Z,21.93
2018-08-06T13:29:48.382Z,22.50
2018-08-06T13:32:52.019Z,23.32
2018-08-06T13:35:55.656Z,22.35
2018-08-06T13:38:59.354Z,22.05
2018-08-06T13:42:03.080Z,21.72
2018-08-06T13:45:08.522Z,22.44
2018-08-06T13:48:12.246Z,22.19
2018-08-06T13:51:15.908Z,22.00
2018-08-06T13:54:19.782Z,20.23
2018-08-06T13:57:23.414Z,20.56
2018-08-06T14:00:27.115Z,20.58
2018-08-06T14:03:30.796Z,20.33
2018-08-06T14:06:34.513Z,21.06
2018-08-06T14:09:38.209Z,19.97
2018-08-06T14:12:42.020Z,19.90
2018-08-06T14:15:45.674Z,19.59
2018-08-06T14:18:49.346Z,19.01
2018-08-06T14:21:53.094Z,19.04
2018-08-06T14:24:56.847Z,20.10
2018-08-06T14:28:00.540Z,19.55
2018-08-06T14:31:04.241Z,20.07
2018-08-06T14:34:08.170Z,20.18
2018-08-06T14:37:11.886Z,19.14
2018-08-06T14:40:17.339Z,19.71
2018-08-06T14:43:21.092Z,20.04
2018-08-06T14:46:24.735Z,20.15
2018-08-06T14:49:28.476Z,19.99
2018-08-06T14:52:32.210Z,20.53
2018-08-06T14:55:36.015Z,20.68
2018-08-06T14:58:39.687Z,21.37
2018-08-06T15:01:43.620Z,21.24
2018-08-06T15:04:47.256Z,19.16
2018-08-06T15:07:50.955Z,20.73
2018-08-06T15:10:54.661Z,20.55
2018-08-06T15:13:58.412Z,20.05
2018-08-06T15:17:02.137Z,20.93
2018-08-06T15:20:08.257Z,21.87
2018-08-06T15:23:12.180Z,20.32
2018-08-06T15:26:16.065Z,20.67
2018-08-06T15:29:19.851Z,20.74
2018-08-06T15:32:23.545Z,20.07
2018-08-06T15:35:27.224Z,20.17
2018-08-06T15:38:30.910Z,22.07
2018-08-06T15:41:34.554Z,20.42
2018-08-06T15:44:38.227Z,20.76
2018-08-06T15:47:42.827Z,21.74
2018-08-06T15:50:46.512Z,20.30
2018-08-06T15:53:50.441Z,21.05
2018-08-06T15:56:54.107Z,20.10
2018-08-06T15:59:57.907Z,20.29
2018-08-06T16:03:01.652Z,23.20
2018-08-06T16:06:05.595Z,21.12
2018-08-06T16:09:09.372Z,23.35
2018-08-06T16:12:13.118Z,21.54
2018-08-06T16:15:17.331Z,20.87
2018-08-06T16:18:20.993Z,22.06
2018-08-06T16:21:24.712Z,21.94
2018-08-06T16:24:28.552Z,22.55
2018-08-06T16:27:32.291Z,23.78
2018-08-06T16:30:36.057Z,20.65
2018-08-06T16:33:39.688Z,21.73
2018-08-06T16:36:43.387Z,21.41
2018-08-06T16:39:47.097Z,23.71
2018-08-06T16:42:51.307Z,21.87
2018-08-06T16:45:55.045Z,23.06
2018-08-06T16:48:58.750Z,22.93
2018-08-06T16:52:02.487Z,23.80
2018-08-06T16:55:06.963Z,24.57
2018-08-06T16:58:10.577Z,25.66
2018-08-06T17:01:14.336Z,24.84
2018-08-06T17:04:18.030Z,21.83
2018-08-06T17:07:21.710Z,25.19
2018-08-06T17:10:25.528Z,25.33
2018-08-06T17:13:29.286Z,25.89
2018-08-06T17:16:32.920Z,27.90
2018-08-06T17:19:36.614Z,25.81
2018-08-06T17:22:40.276Z,27.47
2018-08-06T17:25:43.981Z,26.91
2018-08-06T17:28:47.744Z,25.82
2018-08-06T17:31:51.504Z,24.19
2018-08-06T17:34:55.145Z,23.15
2018-08-06T17:37:58.837Z,24.00
2018-08-06T17:41:02.597Z,23.47
2018-08-06T17:44:06.312Z,23.50
2018-08-06T17:47:10.002Z,22.41
2018-08-06T17:50:15.594Z,22.05
2018-08-06T17:53:19.337Z,20.94
2018-08-06T17:56:23.020Z,20.90
2018-08-06T17:59:26.737Z,21.43
2018-08-06T18:02:30.481Z,21.36
2018-08-06T18:05:34.132Z,21.89
2018-08-06T18:08:37.891Z,22.45
2018-08-06T18:11:41.609Z,23.01
2018-08-06T18:14:45.377Z,23.92
2018-08-06T18:17:49.062Z,25.25
2018-08-06T18:20:52.766Z,26.53
2018-08-06T18:23:56.582Z,27.02
2018-08-06T18:27:00.848Z,27.50
2018-08-06T18:30:07.254Z,28.88
2018-08-06T18:33:10.932Z,30.01
2018-08-06T18:36:14.879Z,30.80
2018-08-06T18:39:18.683Z,31.14
2018-08-06T18:42:22.386Z,31.75
2018-08-06T18:45:26.084Z,32.07
2018-08-06T18:48:29.859Z,32.33
2018-08-06T18:51:33.784Z,32.71
2018-08-06T18:54:37.550Z,32.68
2018-08-06T18:57:41.559Z,32.75
2018-08-06T19:00:45.144Z,32.62
2018-08-06T19:03:48.902Z,32.82
2018-08-06T19:06:52.733Z,32.85
2018-08-06T19:09:56.524Z,33.04
2018-08-06T19:13:05.587Z,33.54
2018-08-06T19:16:09.273Z,33.74
2018-08-06T19:19:18.160Z,33.68
2018-08-06T19:22:21.784Z,33.89
2018-08-06T19:25:27.963Z,33.84
2018-08-06T19:28:31.713Z,33.97
2018-08-06T19:31:35.484Z,34.21
2018-08-06T19:34:39.190Z,33.65
2018-08-06T19:37:50.253Z,34.11
2018-08-06T19:40:53.903Z,34.38
2018-08-06T19:43:57.628Z,34.74
2018-08-06T19:47:01.292Z,34.77
2018-08-06T19:50:11.145Z,35.04
2018-08-06T19:53:14.933Z,35.08
2018-08-06T19:56:18.608Z,35.30
2018-08-06T19:59:22.297Z,35.24
2018-08-06T20:02:26.072Z,35.65
2018-08-06T20:05:29.728Z,35.55
2018-08-06T20:08:33.526Z,36.02
2018-08-06T20:11:37.169Z,36.25
2018-08-06T20:14:40.889Z,36.40
2018-08-06T20:17:44.864Z,35.86
2018-08-06T20:20:48.573Z,35.82
2018-08-06T20:23:52.384Z,36.13
2018-08-06T20:26:56.093Z,36.16
2018-08-06T20:29:59.810Z,34.97
2018-08-06T20:33:03.564Z,35.33
2018-08-06T20:36:07.393Z,35.84
2018-08-06T20:39:11.085Z,37.01
2018-08-06T20:42:14.969Z,36.64
2018-08-06T20:45:20.095Z,35.30
2018-08-06T20:48:23.974Z,35.61
2018-08-06T20:51:27.717Z,35.76
2018-08-06T20:54:31.362Z,35.15
2018-08-06T20:57:34.992Z,35.34
2018-08-06T21:00:38.675Z,35.25
2018-08-06T21:03:42.339Z,35.55
2018-08-06T21:06:46.019Z,35.93
2018-08-06T21:09:49.842Z,35.90
2018-08-06T21:12:53.580Z,35.96
2018-08-06T21:15:57.273Z,35.04
2018-08-06T21:19:01.035Z,33.65
2018-08-06T21:22:04.882Z,34.55
2018-08-06T21:25:10.000Z,34.33
2018-08-06T21:28:13.636Z,33.78
2018-08-06T21:31:17.375Z,34.71
2018-08-06T21:34:21.064Z,34.96
2018-08-06T21:37:24.676Z,35.01
2018-08-06T21:40:28.738Z,35.92
2018-08-06T21:43:32.433Z,34.97
2018-08-06T21:46:36.120Z,35.69
2018-08-06T21:49:39.780Z,36.09
2018-08-06T21:52:43.573Z,35.50
2018-08-06T21:55:47.265Z,35.23
2018-08-06T21:58:50.939Z,35.79
2018-08-06T22:01:55.760Z,35.29
2018-08-06T22:04:59.425Z,35.15
2018-08-06T22:08:03.453Z,35.61
2018-08-06T22:11:07.360Z,35.64
2018-08-06T22:14:11.706Z,35.70
2018-08-06T22:17:15.415Z,35.20
2018-08-06T22:20:19.159Z,36.58
2018-08-06T22:23:22.904Z,36.07
2018-08-06T22:26:26.606Z,35.52
2018-08-06T22:29:30.405Z,36.37
2018-08-06T22:32:34.115Z,36.16
2018-08-06T22:35:37.797Z,35.83
2018-08-06T22:38:41.419Z,36.68
2018-08-06T22:41:45.061Z,36.84
2018-08-06T22:44:48.680Z,36.42
2018-08-06T22:47:52.433Z,36.21
2018-08-06T22:50:56.038Z,36.69
2018-08-06T22:53:59.705Z,36.71
2018-08-06T22:57:03.566Z,36.82
2018-08-06T23:00:09.423Z,37.50
2018-08-06T23:03:13.178Z,37.23
2018-08-06T23:06:16.819Z,37.80
2018-08-06T23:09:20.555Z,37.69
2018-08-06T23:12:24.205Z,37.66
2018-08-06T23:15:27.854Z,37.81
2018-08-06T23:18:31.929Z,38.26
2018-08-06T23:21:35.576Z,37.61
2018-08-06T23:24:39.451Z,38.49
2018-08-06T23:27:43.127Z,37.52
2018-08-06T23:30:46.787Z,37.71
2018-08-06T23:33:50.515Z,38.33
2018-08-06T23:36:54.205Z,37.46
2018-08-06T23:39:57.899Z,37.32
2018-08-06T23:43:01.629Z,37.05
2018-08-06T23:46:05.556Z,37.27
2018-08-06T23:49:09.323Z,37.85
2018-08-06T23:52:13.165Z,36.74
2018-08-06T23:55:18.176Z,36.43
2018-08-06T23:58:21.809Z,35.95
